Date,TemperatureHighF,TemperatureAvgF,TemperatureLowF,DewpointHighF,DewpointAvgF,DewpointLowF,HumidityHigh,HumidityAvg,HumidityLow,PressureMaxIn,PressureMinIn,WindSpeedMaxMPH,WindSpeedAvgMPH,GustSpeedMaxMPH,PrecipitationSumIn
2013-9-3,91.9,77.4,67.2,61.9,55.7,48.4,82,53,23,29.92,29.81,5,1,10,0.41
2013-9-4,91.7,78.0,64.8,60.2,47.7,34.2,78,39,16,30.05,29.90,6,2,12,0.00
2013-9-5,91.3,77.6,60.1,48.0,41.1,33.4,62,30,16,30.06,29.91,6,2,11,0.00
2013-9-6,89.9,76.9,59.2,47.0,41.1,33.6,57,30,18,30.05,29.84,6,2,11,0.00
2013-9-7,88.8,75.7,63.2,62.3,50.3,42.8,63,42,27,29.97,29.80,8,1,8,0.05
2013-9-8,89.5,74.8,60.4,52.2,49.0,44.2,67,42,25,29.92,29.70,7,1,9,0.00
2013-9-9,87.7,74.7,60.4,54.2,50.8,43.2,74,45,25,29.82,29.65,8,2,12,0.00
2013-9-10,72.6,65.9,62.1,62.6,57.7,52.8,96,77,56,29.97,29.78,8,2,14,0.77
2013-9-11,83.8,69.8,61.3,62.4,58.2,48.7,97,71,32,30.04,29.92,9,2,16,0.03
2013-9-12,71.0,64.6,59.7,65.7,59.6,56.4,94,84,70,30.01,29.90,7,2,14,1.25
2013-9-13,72.2,63.4,58.4,60.9,59.4,56.1,96,87,64,30.01,29.89,5,1,10,0.49
2013-9-14,75.1,64.5,57.7,59.7,57.6,55.1,97,80,52,29.99,29.86,8,1,10,0.90
2013-9-15,80.5,66.9,56.7,60.1,54.8,49.4,97,69,35,30.04,29.93,8,2,19,0.26
2013-9-16,78.6,67.1,54.9,56.5,54.0,50.5,96,66,39,30.11,29.96,6,1,8,0.00
2013-9-17,81.5,69.7,57.1,58.9,55.5,52.5,92,63,39,30.03,29.82,6,2,12,0.00
2013-9-18,83.2,72.7,65.5,59.8,56.4,49.5,75,58,35,29.87,29.71,7,2,13,0.00
2013-9-19,82.7,70.6,59.5,60.6,53.2,40.1,96,59,29,29.87,29.76,5,1,8,0.25
2013-9-20,82.3,69.0,57.9,53.6,50.6,42.4,74,53,34,29.99,29.84,6,2,9,0.00
2013-9-21,80.8,67.6,54.7,57.0,53.0,49.4,91,62,37,30.00,29.80,6,2,11,0.00
2013-9-22,79.5,66.7,56.0,56.9,51.8,43.8,95,62,31,29.84,29.49,15,5,28,0.45
2013-9-23,71.3,59.3,46.1,44.4,36.4,31.4,76,46,24,30.08,29.70,11,3,18,0.00
2013-9-24,76.9,61.2,44.3,45.1,41.1,37.3,85,51,26,30.18,29.96,4,1,8,0.00
2013-9-25,83.2,67.8,50.1,45.6,40.8,36.4,76,40,22,29.96,29.62,10,3,20,0.00
2013-9-26,82.1,69.0,53.7,43.3,39.4,32.1,63,37,19,29.76,29.60,11,4,16,0.00
2013-9-27,72.2,61.7,46.1,49.7,40.8,31.8,64,47,37,30.01,29.66,11,5,16,0.00
2013-9-28,70.8,52.5,35.7,35.1,26.7,14.4,76,42,12,30.28,30.01,7,1,9,0.00
2013-9-29,76.2,57.3,39.0,32.1,28.2,22.3,73,38,14,30.30,30.05,3,1,6,0.00
2013-9-30,82.1,63.6,45.2,34.5,29.5,23.8,59,31,13,30.08,29.84,6,1,10,0.00